sensor_id;sensor_type;location;lat;lon;timestamp;P1;durP1;ratioP1;P2;durP2;ratioP2
52180;SDS011;38158;53.338;6.514;2023-05-24T00:01:18;15.70;;;4.20;;
52180;SDS011;38158;53.338;6.514;2023-05-24T00:03:52;15.43;;;3.03;;
52180;SDS011;38158;53.338;6.514;2023-05-24T00:06:19;16.75;;;2.80;;
52180;SDS011;38158;53.338;6.514;2023-05-24T00:08:45;16.45;;;3.80;;
52180;SDS011;38158;53.338;6.514;2023-05-24T00:11:11;10.98;;;2.58;;
52180;SDS011;38158;53.338;6.514;2023-05-24T00:13:37;19.25;;;3.25;;
52180;SDS011;38158;53.338;6.514;2023-05-24T00:16:03;20.35;;;3.95;;
52180;SDS011;38158;53.338;6.514;2023-05-24T00:18:29;16.80;;;2.95;;
52180;SDS011;38158;53.338;6.514;2023-05-24T00:20:55;19.10;;;2.67;;
52180;SDS011;38158;53.338;6.514;2023-05-24T00:23:22;11.85;;;2.70;;
52180;SDS011;38158;53.338;6.514;2023-05-24T00:25:51;21.90;;;2.90;;
52180;SDS011;38158;53.338;6.514;2023-05-24T00:28:17;11.27;;;3.20;;
52180;SDS011;38158;53.338;6.514;2023-05-24T00:30:43;13.70;;;3.22;;
52180;SDS011;38158;53.338;6.514;2023-05-24T00:33:08;14.98;;;2.78;;
52180;SDS011;38158;53.338;6.514;2023-05-24T00:35:34;11.05;;;2.80;;
52180;SDS011;38158;53.338;6.514;2023-05-24T00:38:00;12.63;;;2.95;;
52180;SDS011;38158;53.338;6.514;2023-05-24T00:40:25;15.63;;;2.90;;
52180;SDS011;38158;53.338;6.514;2023-05-24T00:42:51;13.25;;;3.25;;
52180;SDS011;38158;53.338;6.514;2023-05-24T00:45:17;12.32;;;3.33;;
52180;SDS011;38158;53.338;6.514;2023-05-24T00:47:43;9.48;;;2.92;;
52180;SDS011;38158;53.338;6.514;2023-05-24T00:50:09;16.85;;;3.33;;
52180;SDS011;38158;53.338;6.514;2023-05-24T00:52:39;15.00;;;2.72;;
52180;SDS011;38158;53.338;6.514;2023-05-24T00:55:05;12.85;;;2.75;;
52180;SDS011;38158;53.338;6.514;2023-05-24T00:57:32;14.68;;;2.80;;
52180;SDS011;38158;53.338;6.514;2023-05-24T01:00:00;13.65;;;2.53;;
52180;SDS011;38158;53.338;6.514;2023-05-24T01:02:26;12.80;;;2.97;;
52180;SDS011;38158;53.338;6.514;2023-05-24T01:04:52;11.32;;;2.78;;
52180;SDS011;38158;53.338;6.514;2023-05-24T01:07:21;12.57;;;2.55;;
52180;SDS011;38158;53.338;6.514;2023-05-24T01:16:18;12.00;;;2.63;;
52180;SDS011;38158;53.338;6.514;2023-05-24T01:18:51;13.38;;;3.00;;
52180;SDS011;38158;53.338;6.514;2023-05-24T01:21:34;10.65;;;2.22;;
52180;SDS011;38158;53.338;6.514;2023-05-24T01:29:32;17.85;;;3.05;;
52180;SDS011;38158;53.338;6.514;2023-05-24T01:31:59;12.80;;;2.58;;
52180;SDS011;38158;53.338;6.514;2023-05-24T01:34:25;14.15;;;2.55;;
52180;SDS011;38158;53.338;6.514;2023-05-24T01:36:51;20.05;;;3.30;;
52180;SDS011;38158;53.338;6.514;2023-05-24T01:39:17;12.25;;;3.85;;
52180;SDS011;38158;53.338;6.514;2023-05-24T01:44:40;15.43;;;2.58;;
52180;SDS011;38158;53.338;6.514;2023-05-24T01:49:37;12.35;;;2.33;;
52180;SDS011;38158;53.338;6.514;2023-05-24T01:52:10;11.10;;;2.55;;
52180;SDS011;38158;53.338;6.514;2023-05-24T01:54:44;10.65;;;2.78;;
52180;SDS011;38158;53.338;6.514;2023-05-24T01:57:14;9.45;;;2.33;;
52180;SDS011;38158;53.338;6.514;2023-05-24T01:59:42;10.07;;;2.15;;
52180;SDS011;38158;53.338;6.514;2023-05-24T02:02:09;11.63;;;2.58;;
52180;SDS011;38158;53.338;6.514;2023-05-24T02:04:35;15.88;;;3.08;;
52180;SDS011;38158;53.338;6.514;2023-05-24T02:07:01;15.43;;;3.38;;
52180;SDS011;38158;53.338;6.514;2023-05-24T02:09:27;11.45;;;2.88;;
52180;SDS011;38158;53.338;6.514;2023-05-24T02:11:53;13.55;;;2.45;;
52180;SDS011;38158;53.338;6.514;2023-05-24T02:14:18;14.55;;;3.22;;
52180;SDS011;38158;53.338;6.514;2023-05-24T02:16:44;10.13;;;2.40;;
52180;SDS011;38158;53.338;6.514;2023-05-24T02:19:13;9.93;;;2.22;;
52180;SDS011;38158;53.338;6.514;2023-05-24T02:21:39;14.98;;;2.58;;
52180;SDS011;38158;53.338;6.514;2023-05-24T02:24:05;14.15;;;2.40;;
52180;SDS011;38158;53.338;6.514;2023-05-24T02:26:32;14.25;;;2.42;;
52180;SDS011;38158;53.338;6.514;2023-05-24T02:28:57;11.93;;;2.45;;
52180;SDS011;38158;53.338;6.514;2023-05-24T02:31:23;14.43;;;2.65;;
52180;SDS011;38158;53.338;6.514;2023-05-24T02:33:53;10.30;;;2.67;;
52180;SDS011;38158;53.338;6.514;2023-05-24T02:36:19;14.18;;;2.60;;
52180;SDS011;38158;53.338;6.514;2023-05-24T02:38:47;13.95;;;2.25;;
52180;SDS011;38158;53.338;6.514;2023-05-24T02:41:16;11.18;;;2.20;;
52180;SDS011;38158;53.338;6.514;2023-05-24T02:43:45;20.73;;;3.53;;
52180;SDS011;38158;53.338;6.514;2023-05-24T02:46:12;15.63;;;2.72;;
52180;SDS011;38158;53.338;6.514;2023-05-24T02:48:38;11.32;;;2.55;;
52180;SDS011;38158;53.338;6.514;2023-05-24T02:51:04;11.27;;;2.90;;
52180;SDS011;38158;53.338;6.514;2023-05-24T02:53:30;13.82;;;2.55;;
52180;SDS011;38158;53.338;6.514;2023-05-24T02:55:57;15.88;;;2.20;;
52180;SDS011;38158;53.338;6.514;2023-05-24T02:58:23;12.20;;;2.85;;
52180;SDS011;38158;53.338;6.514;2023-05-24T03:00:49;13.70;;;2.67;;
52180;SDS011;38158;53.338;6.514;2023-05-24T03:03:15;14.45;;;2.85;;
52180;SDS011;38158;53.338;6.514;2023-05-24T03:05:40;18.42;;;2.60;;
52180;SDS011;38158;53.338;6.514;2023-05-24T03:08:07;16.60;;;2.92;;
52180;SDS011;38158;53.338;6.514;2023-05-24T03:10:32;12.20;;;2.25;;
52180;SDS011;38158;53.338;6.514;2023-05-24T03:12:58;14.10;;;2.35;;
52180;SDS011;38158;53.338;6.514;2023-05-24T03:15:24;10.50;;;2.35;;
52180;SDS011;38158;53.338;6.514;2023-05-24T03:17:49;18.30;;;3.05;;
52180;SDS011;38158;53.338;6.514;2023-05-24T03:20:15;11.52;;;2.50;;
52180;SDS011;38158;53.338;6.514;2023-05-24T03:22:41;12.45;;;2.80;;
52180;SDS011;38158;53.338;6.514;2023-05-24T03:25:07;11.77;;;2.65;;
52180;SDS011;38158;53.338;6.514;2023-05-24T03:27:34;15.43;;;2.78;;
52180;SDS011;38158;53.338;6.514;2023-05-24T03:30:02;14.73;;;2.50;;
52180;SDS011;38158;53.338;6.514;2023-05-24T03:32:30;13.32;;;2.90;;
52180;SDS011;38158;53.338;6.514;2023-05-24T03:34:57;11.03;;;2.87;;
52180;SDS011;38158;53.338;6.514;2023-05-24T03:37:25;12.18;;;2.75;;
52180;SDS011;38158;53.338;6.514;2023-05-24T03:39:51;19.97;;;2.93;;
52180;SDS011;38158;53.338;6.514;2023-05-24T03:42:17;13.13;;;2.95;;
52180;SDS011;38158;53.338;6.514;2023-05-24T03:44:43;10.98;;;2.72;;
52180;SDS011;38158;53.338;6.514;2023-05-24T03:47:09;14.65;;;2.60;;
52180;SDS011;38158;53.338;6.514;2023-05-24T03:49:34;13.95;;;3.30;;
52180;SDS011;38158;53.338;6.514;2023-05-24T03:52:00;15.80;;;3.33;;
52180;SDS011;38158;53.338;6.514;2023-05-24T03:54:26;8.05;;;2.67;;
52180;SDS011;38158;53.338;6.514;2023-05-24T03:56:51;17.00;;;3.20;;
52180;SDS011;38158;53.338;6.514;2023-05-24T03:59:17;18.75;;;3.38;;
52180;SDS011;38158;53.338;6.514;2023-05-24T04:01:43;13.82;;;2.47;;
52180;SDS011;38158;53.338;6.514;2023-05-24T04:04:09;15.98;;;2.83;;
52180;SDS011;38158;53.338;6.514;2023-05-24T04:06:35;13.30;;;2.97;;
52180;SDS011;38158;53.338;6.514;2023-05-24T04:09:02;15.02;;;3.00;;
52180;SDS011;38158;53.338;6.514;2023-05-24T04:11:30;14.07;;;2.80;;
52180;SDS011;38158;53.338;6.514;2023-05-24T04:13:56;14.60;;;2.78;;
52180;SDS011;38158;53.338;6.514;2023-05-24T04:16:26;18.45;;;3.40;;
52180;SDS011;38158;53.338;6.514;2023-05-24T04:18:53;12.90;;;2.90;;
52180;SDS011;38158;53.338;6.514;2023-05-24T04:21:19;14.60;;;3.13;;
52180;SDS011;38158;53.338;6.514;2023-05-24T04:23:45;15.05;;;2.60;;
52180;SDS011;38158;53.338;6.514;2023-05-24T04:26:11;14.57;;;2.70;;
52180;SDS011;38158;53.338;6.514;2023-05-24T04:28:37;14.63;;;2.77;;
52180;SDS011;38158;53.338;6.514;2023-05-24T04:31:04;19.02;;;2.90;;
52180;SDS011;38158;53.338;6.514;2023-05-24T04:33:33;12.93;;;3.13;;
52180;SDS011;38158;53.338;6.514;2023-05-24T04:36:00;14.93;;;2.88;;
52180;SDS011;38158;53.338;6.514;2023-05-24T04:38:26;14.98;;;3.97;;
52180;SDS011;38158;53.338;6.514;2023-05-24T04:41:02;14.15;;;2.95;;
52180;SDS011;38158;53.338;6.514;2023-05-24T04:43:28;13.32;;;2.53;;
52180;SDS011;38158;53.338;6.514;2023-05-24T04:45:54;13.55;;;3.30;;
52180;SDS011;38158;53.338;6.514;2023-05-24T04:48:20;17.15;;;2.97;;
52180;SDS011;38158;53.338;6.514;2023-05-24T04:50:51;9.40;;;2.55;;
52180;SDS011;38158;53.338;6.514;2023-05-24T04:53:20;14.75;;;2.78;;
52180;SDS011;38158;53.338;6.514;2023-05-24T04:55:47;13.95;;;2.35;;
52180;SDS011;38158;53.338;6.514;2023-05-24T04:58:13;16.95;;;2.90;;
52180;SDS011;38158;53.338;6.514;2023-05-24T05:00:40;16.80;;;2.75;;
52180;SDS011;38158;53.338;6.514;2023-05-24T05:03:06;11.57;;;2.17;;
52180;SDS011;38158;53.338;6.514;2023-05-24T05:05:32;14.90;;;3.27;;
52180;SDS011;38158;53.338;6.514;2023-05-24T05:07:58;9.80;;;2.72;;
52180;SDS011;38158;53.338;6.514;2023-05-24T05:10:24;14.47;;;3.07;;
52180;SDS011;38158;53.338;6.514;2023-05-24T05:12:50;18.40;;;2.80;;
52180;SDS011;38158;53.338;6.514;2023-05-24T05:15:16;14.63;;;2.88;;
52180;SDS011;38158;53.338;6.514;2023-05-24T05:17:42;13.82;;;2.97;;
52180;SDS011;38158;53.338;6.514;2023-05-24T05:20:07;12.50;;;2.22;;
52180;SDS011;38158;53.338;6.514;2023-05-24T05:22:33;11.75;;;2.75;;
52180;SDS011;38158;53.338;6.514;2023-05-24T05:24:59;17.02;;;3.25;;
52180;SDS011;38158;53.338;6.514;2023-05-24T05:27:25;15.45;;;3.47;;
52180;SDS011;38158;53.338;6.514;2023-05-24T05:29:51;15.32;;;2.85;;
52180;SDS011;38158;53.338;6.514;2023-05-24T05:32:17;13.50;;;2.42;;
52180;SDS011;38158;53.338;6.514;2023-05-24T05:34:42;12.43;;;2.67;;
52180;SDS011;38158;53.338;6.514;2023-05-24T05:37:08;9.73;;;2.55;;
52180;SDS011;38158;53.338;6.514;2023-05-24T05:39:35;15.38;;;2.95;;
52180;SDS011;38158;53.338;6.514;2023-05-24T05:42:00;15.23;;;4.00;;
52180;SDS011;38158;53.338;6.514;2023-05-24T05:44:26;16.73;;;3.03;;
52180;SDS011;38158;53.338;6.514;2023-05-24T05:46:52;14.48;;;2.67;;
52180;SDS011;38158;53.338;6.514;2023-05-24T05:49:18;12.13;;;2.30;;
52180;SDS011;38158;53.338;6.514;2023-05-24T05:51:44;11.57;;;2.70;;
52180;SDS011;38158;53.338;6.514;2023-05-24T05:54:11;15.02;;;2.95;;
52180;SDS011;38158;53.338;6.514;2023-05-24T05:56:42;14.90;;;2.70;;
52180;SDS011;38158;53.338;6.514;2023-05-24T05:59:13;9.07;;;2.03;;
52180;SDS011;38158;53.338;6.514;2023-05-24T06:01:42;7.68;;;2.35;;
52180;SDS011;38158;53.338;6.514;2023-05-24T06:04:11;8.30;;;2.05;;
52180;SDS011;38158;53.338;6.514;2023-05-24T06:06:36;11.00;;;2.17;;
52180;SDS011;38158;53.338;6.514;2023-05-24T06:09:02;12.45;;;2.50;;
52180;SDS011;38158;53.338;6.514;2023-05-24T06:11:28;12.50;;;2.25;;
52180;SDS011;38158;53.338;6.514;2023-05-24T06:13:54;12.13;;;2.45;;
52180;SDS011;38158;53.338;6.514;2023-05-24T06:16:19;9.13;;;2.65;;
52180;SDS011;38158;53.338;6.514;2023-05-24T06:18:45;11.27;;;2.83;;
52180;SDS011;38158;53.338;6.514;2023-05-24T06:21:12;13.07;;;2.60;;
52180;SDS011;38158;53.338;6.514;2023-05-24T06:23:41;14.68;;;2.40;;
52180;SDS011;38158;53.338;6.514;2023-05-24T06:26:07;10.02;;;2.80;;
52180;SDS011;38158;53.338;6.514;2023-05-24T06:28:36;10.95;;;2.47;;
52180;SDS011;38158;53.338;6.514;2023-05-24T06:31:02;12.63;;;2.47;;
52180;SDS011;38158;53.338;6.514;2023-05-24T06:33:29;15.60;;;2.88;;
52180;SDS011;38158;53.338;6.514;2023-05-24T06:35:56;16.58;;;2.80;;
52180;SDS011;38158;53.338;6.514;2023-05-24T06:38:22;14.18;;;2.80;;
52180;SDS011;38158;53.338;6.514;2023-05-24T06:40:48;15.18;;;3.22;;
52180;SDS011;38158;53.338;6.514;2023-05-24T06:43:14;11.25;;;2.50;;
52180;SDS011;38158;53.338;6.514;2023-05-24T06:45:40;16.92;;;2.40;;
52180;SDS011;38158;53.338;6.514;2023-05-24T06:48:06;13.18;;;2.13;;
52180;SDS011;38158;53.338;6.514;2023-05-24T06:50:32;10.93;;;2.35;;
52180;SDS011;38158;53.338;6.514;2023-05-24T06:52:57;10.52;;;2.28;;
52180;SDS011;38158;53.338;6.514;2023-05-24T06:55:23;13.98;;;2.67;;
52180;SDS011;38158;53.338;6.514;2023-05-24T06:57:49;9.77;;;2.55;;
52180;SDS011;38158;53.338;6.514;2023-05-24T07:00:14;13.35;;;3.10;;
52180;SDS011;38158;53.338;6.514;2023-05-24T07:02:40;10.57;;;1.95;;
52180;SDS011;38158;53.338;6.514;2023-05-24T07:05:06;12.80;;;2.25;;
52180;SDS011;38158;53.338;6.514;2023-05-24T07:07:39;11.65;;;2.60;;
52180;SDS011;38158;53.338;6.514;2023-05-24T07:10:06;13.02;;;2.20;;
52180;SDS011;38158;53.338;6.514;2023-05-24T07:12:33;11.75;;;2.60;;
52180;SDS011;38158;53.338;6.514;2023-05-24T07:14:59;14.32;;;3.13;;
52180;SDS011;38158;53.338;6.514;2023-05-24T07:17:25;13.20;;;2.50;;
52180;SDS011;38158;53.338;6.514;2023-05-24T07:19:51;7.05;;;2.08;;
52180;SDS011;38158;53.338;6.514;2023-05-24T07:22:16;18.83;;;3.42;;
52180;SDS011;38158;53.338;6.514;2023-05-24T07:24:42;14.52;;;2.30;;
52180;SDS011;38158;53.338;6.514;2023-05-24T07:27:08;12.68;;;2.25;;
52180;SDS011;38158;53.338;6.514;2023-05-24T07:29:33;12.35;;;2.30;;
52180;SDS011;38158;53.338;6.514;2023-05-24T07:32:00;7.03;;;1.77;;
52180;SDS011;38158;53.338;6.514;2023-05-24T07:34:25;5.97;;;1.60;;
52180;SDS011;38158;53.338;6.514;2023-05-24T07:36:54;8.52;;;1.48;;
52180;SDS011;38158;53.338;6.514;2023-05-24T07:39:22;5.72;;;1.15;;
52180;SDS011;38158;53.338;6.514;2023-05-24T07:41:49;6.28;;;1.67;;
52180;SDS011;38158;53.338;6.514;2023-05-24T07:44:15;6.65;;;1.52;;
52180;SDS011;38158;53.338;6.514;2023-05-24T07:46:40;6.40;;;1.88;;
52180;SDS011;38158;53.338;6.514;2023-05-24T07:49:06;5.80;;;1.58;;
52180;SDS011;38158;53.338;6.514;2023-05-24T07:51:32;9.80;;;1.98;;
52180;SDS011;38158;53.338;6.514;2023-05-24T07:53:58;3.92;;;1.33;;
52180;SDS011;38158;53.338;6.514;2023-05-24T07:56:24;8.13;;;1.70;;
52180;SDS011;38158;53.338;6.514;2023-05-24T07:58:50;7.65;;;1.77;;
52180;SDS011;38158;53.338;6.514;2023-05-24T08:01:16;7.30;;;2.03;;
52180;SDS011;38158;53.338;6.514;2023-05-24T08:03:44;6.93;;;1.88;;
52180;SDS011;38158;53.338;6.514;2023-05-24T08:06:10;7.55;;;2.00;;
52180;SDS011;38158;53.338;6.514;2023-05-24T08:08:37;8.98;;;1.83;;
52180;SDS011;38158;53.338;6.514;2023-05-24T08:13:30;11.18;;;1.88;;
52180;SDS011;38158;53.338;6.514;2023-05-24T08:15:55;12.50;;;2.17;;
52180;SDS011;38158;53.338;6.514;2023-05-24T08:18:22;6.07;;;2.00;;
52180;SDS011;38158;53.338;6.514;2023-05-24T08:20:48;9.60;;;2.05;;
52180;SDS011;38158;53.338;6.514;2023-05-24T08:23:13;8.48;;;2.20;;
52180;SDS011;38158;53.338;6.514;2023-05-24T08:25:39;8.85;;;1.90;;
52180;SDS011;38158;53.338;6.514;2023-05-24T08:28:05;11.23;;;1.98;;
52180;SDS011;38158;53.338;6.514;2023-05-24T08:30:30;10.50;;;2.45;;
52180;SDS011;38158;53.338;6.514;2023-05-24T08:32:56;9.93;;;1.98;;
52180;SDS011;38158;53.338;6.514;2023-05-24T08:35:22;8.20;;;2.08;;
52180;SDS011;38158;53.338;6.514;2023-05-24T08:37:48;10.32;;;1.52;;
52180;SDS011;38158;53.338;6.514;2023-05-24T08:40:14;8.32;;;1.80;;
52180;SDS011;38158;53.338;6.514;2023-05-24T08:42:40;10.05;;;2.20;;
52180;SDS011;38158;53.338;6.514;2023-05-24T08:45:13;12.35;;;2.50;;
52180;SDS011;38158;53.338;6.514;2023-05-24T08:47:39;7.22;;;2.45;;
52180;SDS011;38158;53.338;6.514;2023-05-24T08:50:06;8.23;;;2.10;;
52180;SDS011;38158;53.338;6.514;2023-05-24T08:52:32;9.07;;;1.90;;
52180;SDS011;38158;53.338;6.514;2023-05-24T08:54:59;8.60;;;2.20;;
52180;SDS011;38158;53.338;6.514;2023-05-24T08:57:25;8.77;;;2.38;;
52180;SDS011;38158;53.338;6.514;2023-05-24T08:59:52;11.63;;;2.05;;
52180;SDS011;38158;53.338;6.514;2023-05-24T09:02:21;8.80;;;2.13;;
52180;SDS011;38158;53.338;6.514;2023-05-24T09:04:48;5.60;;;2.00;;
52180;SDS011;38158;53.338;6.514;2023-05-24T09:07:19;8.93;;;1.67;;
52180;SDS011;38158;53.338;6.514;2023-05-24T09:09:50;11.40;;;2.15;;
52180;SDS011;38158;53.338;6.514;2023-05-24T09:12:21;7.63;;;2.47;;
52180;SDS011;38158;53.338;6.514;2023-05-24T09:14:48;6.43;;;2.08;;
52180;SDS011;38158;53.338;6.514;2023-05-24T09:17:14;11.02;;;2.17;;
52180;SDS011;38158;53.338;6.514;2023-05-24T09:19:46;10.05;;;2.47;;
52180;SDS011;38158;53.338;6.514;2023-05-24T09:22:14;10.60;;;2.45;;
52180;SDS011;38158;53.338;6.514;2023-05-24T09:24:47;8.50;;;2.25;;
52180;SDS011;38158;53.338;6.514;2023-05-24T09:27:14;10.02;;;2.28;;
52180;SDS011;38158;53.338;6.514;2023-05-24T09:29:45;10.50;;;2.58;;
52180;SDS011;38158;53.338;6.514;2023-05-24T09:32:13;10.23;;;2.47;;
52180;SDS011;38158;53.338;6.514;2023-05-24T09:34:40;13.68;;;3.33;;
52180;SDS011;38158;53.338;6.514;2023-05-24T09:37:10;10.88;;;2.50;;
52180;SDS011;38158;53.338;6.514;2023-05-24T09:39:41;11.57;;;2.70;;
52180;SDS011;38158;53.338;6.514;2023-05-24T09:42:07;6.05;;;1.80;;
52180;SDS011;38158;53.338;6.514;2023-05-24T09:44:39;9.43;;;2.15;;
52180;SDS011;38158;53.338;6.514;2023-05-24T09:47:04;10.90;;;2.05;;
52180;SDS011;38158;53.338;6.514;2023-05-24T09:49:30;8.07;;;2.15;;
52180;SDS011;38158;53.338;6.514;2023-05-24T09:51:56;11.25;;;2.40;;
52180;SDS011;38158;53.338;6.514;2023-05-24T09:54:23;12.48;;;2.65;;
52180;SDS011;38158;53.338;6.514;2023-05-24T09:56:50;8.10;;;2.30;;
52180;SDS011;38158;53.338;6.514;2023-05-24T09:59:16;9.77;;;2.45;;
52180;SDS011;38158;53.338;6.514;2023-05-24T10:01:43;8.07;;;1.73;;
52180;SDS011;38158;53.338;6.514;2023-05-24T10:04:10;7.70;;;2.30;;
52180;SDS011;38158;53.338;6.514;2023-05-24T10:06:36;13.00;;;3.30;;
52180;SDS011;38158;53.338;6.514;2023-05-24T10:09:03;9.18;;;2.33;;
52180;SDS011;38158;53.338;6.514;2023-05-24T10:11:34;10.00;;;2.40;;
52180;SDS011;38158;53.338;6.514;2023-05-24T10:14:04;10.93;;;2.20;;
52180;SDS011;38158;53.338;6.514;2023-05-24T10:16:31;8.70;;;2.22;;
52180;SDS011;38158;53.338;6.514;2023-05-24T10:18:57;7.95;;;2.22;;
52180;SDS011;38158;53.338;6.514;2023-05-24T10:21:23;13.13;;;2.55;;
52180;SDS011;38158;53.338;6.514;2023-05-24T10:23:54;10.82;;;2.55;;
52180;SDS011;38158;53.338;6.514;2023-05-24T10:26:23;11.00;;;2.28;;
52180;SDS011;38158;53.338;6.514;2023-05-24T10:31:21;6.85;;;1.92;;
52180;SDS011;38158;53.338;6.514;2023-05-24T10:33:52;12.48;;;2.55;;
52180;SDS011;38158;53.338;6.514;2023-05-24T10:36:20;8.13;;;2.03;;
52180;SDS011;38158;53.338;6.514;2023-05-24T10:38:46;9.18;;;2.30;;
52180;SDS011;38158;53.338;6.514;2023-05-24T10:41:12;9.90;;;2.80;;
52180;SDS011;38158;53.338;6.514;2023-05-24T10:43:38;8.40;;;2.45;;
52180;SDS011;38158;53.338;6.514;2023-05-24T10:46:06;11.20;;;2.80;;
52180;SDS011;38158;53.338;6.514;2023-05-24T10:51:00;9.32;;;2.50;;
52180;SDS011;38158;53.338;6.514;2023-05-24T10:54:17;11.18;;;2.38;;
52180;SDS011;38158;53.338;6.514;2023-05-24T10:56:44;10.52;;;2.40;;
52180;SDS011;38158;53.338;6.514;2023-05-24T10:59:31;11.32;;;2.20;;
52180;SDS011;38158;53.338;6.514;2023-05-24T11:02:04;12.48;;;2.75;;
52180;SDS011;38158;53.338;6.514;2023-05-24T11:04:39;10.95;;;2.17;;
52180;SDS011;38158;53.338;6.514;2023-05-24T11:07:07;9.55;;;2.03;;
52180;SDS011;38158;53.338;6.514;2023-05-24T11:09:35;5.75;;;1.67;;
52180;SDS011;38158;53.338;6.514;2023-05-24T11:12:19;7.68;;;2.13;;
52180;SDS011;38158;53.338;6.514;2023-05-24T11:14:46;10.73;;;2.03;;
52180;SDS011;38158;53.338;6.514;2023-05-24T11:17:13;12.35;;;3.08;;
52180;SDS011;38158;53.338;6.514;2023-05-24T11:19:48;8.13;;;2.10;;
52180;SDS011;38158;53.338;6.514;2023-05-24T11:22:18;8.38;;;2.25;;
52180;SDS011;38158;53.338;6.514;2023-05-24T11:24:45;10.23;;;2.20;;
52180;SDS011;38158;53.338;6.514;2023-05-24T11:27:12;8.68;;;1.88;;
52180;SDS011;38158;53.338;6.514;2023-05-24T11:29:42;10.15;;;2.03;;
52180;SDS011;38158;53.338;6.514;2023-05-24T11:32:10;7.10;;;1.75;;
52180;SDS011;38158;53.338;6.514;2023-05-24T11:34:42;9.82;;;2.60;;
52180;SDS011;38158;53.338;6.514;2023-05-24T11:37:10;5.30;;;1.58;;
52180;SDS011;38158;53.338;6.514;2023-05-24T11:39:36;8.37;;;2.00;;
52180;SDS011;38158;53.338;6.514;2023-05-24T11:42:03;8.18;;;1.85;;
52180;SDS011;38158;53.338;6.514;2023-05-24T11:44:30;7.53;;;2.10;;
52180;SDS011;38158;53.338;6.514;2023-05-24T11:46:57;12.70;;;2.50;;
52180;SDS011;38158;53.338;6.514;2023-05-24T11:49:24;9.13;;;1.90;;
52180;SDS011;38158;53.338;6.514;2023-05-24T11:51:51;9.45;;;2.28;;
52180;SDS011;38158;53.338;6.514;2023-05-24T11:54:19;11.38;;;2.05;;
52180;SDS011;38158;53.338;6.514;2023-05-24T11:59:15;7.53;;;1.65;;
52180;SDS011;38158;53.338;6.514;2023-05-24T12:01:49;13.48;;;2.47;;
52180;SDS011;38158;53.338;6.514;2023-05-24T12:04:25;10.70;;;1.88;;
52180;SDS011;38158;53.338;6.514;2023-05-24T12:06:52;9.63;;;2.38;;
52180;SDS011;38158;53.338;6.514;2023-05-24T12:09:19;8.70;;;2.40;;
52180;SDS011;38158;53.338;6.514;2023-05-24T12:11:45;10.45;;;2.10;;
52180;SDS011;38158;53.338;6.514;2023-05-24T12:14:13;6.38;;;1.92;;
52180;SDS011;38158;53.338;6.514;2023-05-24T12:16:40;7.85;;;2.10;;
52180;SDS011;38158;53.338;6.514;2023-05-24T12:19:07;8.65;;;1.98;;
52180;SDS011;38158;53.338;6.514;2023-05-24T12:21:39;9.15;;;1.88;;
52180;SDS011;38158;53.338;6.514;2023-05-24T12:24:24;8.23;;;2.05;;
52180;SDS011;38158;53.338;6.514;2023-05-24T12:26:51;9.65;;;2.08;;
52180;SDS011;38158;53.338;6.514;2023-05-24T12:29:18;10.05;;;2.03;;
52180;SDS011;38158;53.338;6.514;2023-05-24T12:31:44;6.07;;;1.97;;
52180;SDS011;38158;53.338;6.514;2023-05-24T12:34:12;9.27;;;2.38;;
52180;SDS011;38158;53.338;6.514;2023-05-24T12:36:42;8.05;;;1.95;;
52180;SDS011;38158;53.338;6.514;2023-05-24T12:41:44;9.43;;;1.90;;
52180;SDS011;38158;53.338;6.514;2023-05-24T12:44:14;4.78;;;1.63;;
52180;SDS011;38158;53.338;6.514;2023-05-24T12:46:40;8.00;;;1.75;;
52180;SDS011;38158;53.338;6.514;2023-05-24T12:49:05;7.05;;;1.85;;
52180;SDS011;38158;53.338;6.514;2023-05-24T12:51:31;14.07;;;3.05;;
52180;SDS011;38158;53.338;6.514;2023-05-24T12:53:57;8.23;;;1.95;;
52180;SDS011;38158;53.338;6.514;2023-05-24T12:56:22;9.73;;;2.22;;
52180;SDS011;38158;53.338;6.514;2023-05-24T12:58:51;8.10;;;2.08;;
52180;SDS011;38158;53.338;6.514;2023-05-24T13:01:17;7.47;;;2.03;;
52180;SDS011;38158;53.338;6.514;2023-05-24T13:03:43;7.10;;;1.85;;
52180;SDS011;38158;53.338;6.514;2023-05-24T13:06:08;8.75;;;1.95;;
52180;SDS011;38158;53.338;6.514;2023-05-24T13:08:35;6.30;;;1.47;;
52180;SDS011;38158;53.338;6.514;2023-05-24T13:11:00;12.98;;;2.63;;
52180;SDS011;38158;53.338;6.514;2023-05-24T13:13:26;10.20;;;2.17;;
52180;SDS011;38158;53.338;6.514;2023-05-24T13:15:52;7.67;;;2.23;;
52180;SDS011;38158;53.338;6.514;2023-05-24T13:18:18;8.70;;;1.95;;
52180;SDS011;38158;53.338;6.514;2023-05-24T13:20:44;10.32;;;1.83;;
52180;SDS011;38158;53.338;6.514;2023-05-24T13:23:10;8.18;;;1.92;;
52180;SDS011;38158;53.338;6.514;2023-05-24T13:25:35;9.30;;;2.55;;
52180;SDS011;38158;53.338;6.514;2023-05-24T13:28:01;8.07;;;2.22;;
52180;SDS011;38158;53.338;6.514;2023-05-24T13:30:27;7.93;;;1.73;;
52180;SDS011;38158;53.338;6.514;2023-05-24T13:32:53;7.05;;;1.88;;
52180;SDS011;38158;53.338;6.514;2023-05-24T13:35:19;9.23;;;2.85;;
52180;SDS011;38158;53.338;6.514;2023-05-24T13:37:46;10.43;;;2.17;;
52180;SDS011;38158;53.338;6.514;2023-05-24T13:40:12;7.30;;;2.08;;
52180;SDS011;38158;53.338;6.514;2023-05-24T13:42:38;7.18;;;1.80;;
52180;SDS011;38158;53.338;6.514;2023-05-24T13:45:04;6.57;;;1.77;;
52180;SDS011;38158;53.338;6.514;2023-05-24T13:47:30;9.83;;;2.70;;
52180;SDS011;38158;53.338;6.514;2023-05-24T13:49:56;10.60;;;1.90;;
52180;SDS011;38158;53.338;6.514;2023-05-24T13:52:21;8.20;;;1.63;;
52180;SDS011;38158;53.338;6.514;2023-05-24T13:54:47;7.68;;;2.03;;
52180;SDS011;38158;53.338;6.514;2023-05-24T13:57:14;6.47;;;1.55;;
52180;SDS011;38158;53.338;6.514;2023-05-24T13:59:41;8.90;;;1.55;;
52180;SDS011;38158;53.338;6.514;2023-05-24T14:02:06;4.70;;;1.83;;
52180;SDS011;38158;53.338;6.514;2023-05-24T14:04:32;6.93;;;1.95;;
52180;SDS011;38158;53.338;6.514;2023-05-24T14:06:58;8.70;;;2.08;;
52180;SDS011;38158;53.338;6.514;2023-05-24T14:09:24;7.68;;;1.80;;
52180;SDS011;38158;53.338;6.514;2023-05-24T14:11:50;7.03;;;2.25;;
52180;SDS011;38158;53.338;6.514;2023-05-24T14:14:16;6.17;;;1.40;;
52180;SDS011;38158;53.338;6.514;2023-05-24T14:16:42;5.60;;;1.73;;
52180;SDS011;38158;53.338;6.514;2023-05-24T14:19:08;9.05;;;2.25;;
52180;SDS011;38158;53.338;6.514;2023-05-24T14:21:33;8.52;;;1.85;;
52180;SDS011;38158;53.338;6.514;2023-05-24T14:24:00;8.23;;;2.10;;
52180;SDS011;38158;53.338;6.514;2023-05-24T14:26:26;6.32;;;1.60;;
52180;SDS011;38158;53.338;6.514;2023-05-24T14:28:51;6.68;;;1.77;;
52180;SDS011;38158;53.338;6.514;2023-05-24T14:31:17;7.75;;;1.92;;
52180;SDS011;38158;53.338;6.514;2023-05-24T14:33:43;7.90;;;1.40;;
52180;SDS011;38158;53.338;6.514;2023-05-24T14:36:08;6.15;;;1.95;;
52180;SDS011;38158;53.338;6.514;2023-05-24T14:38:35;4.75;;;1.10;;
52180;SDS011;38158;53.338;6.514;2023-05-24T14:41:00;7.32;;;1.92;;
52180;SDS011;38158;53.338;6.514;2023-05-24T14:43:26;7.80;;;1.75;;
52180;SDS011;38158;53.338;6.514;2023-05-24T14:45:53;7.22;;;1.42;;
52180;SDS011;38158;53.338;6.514;2023-05-24T14:48:19;5.18;;;1.42;;
52180;SDS011;38158;53.338;6.514;2023-05-24T14:50:45;6.03;;;1.45;;
52180;SDS011;38158;53.338;6.514;2023-05-24T14:53:10;5.88;;;1.42;;
52180;SDS011;38158;53.338;6.514;2023-05-24T14:55:36;7.07;;;1.98;;
52180;SDS011;38158;53.338;6.514;2023-05-24T14:58:03;8.63;;;2.17;;
52180;SDS011;38158;53.338;6.514;2023-05-24T15:00:33;5.15;;;2.17;;
52180;SDS011;38158;53.338;6.514;2023-05-24T15:02:59;6.15;;;1.38;;
52180;SDS011;38158;53.338;6.514;2023-05-24T15:05:24;5.40;;;1.45;;
52180;SDS011;38158;53.338;6.514;2023-05-24T15:07:50;6.10;;;1.70;;
52180;SDS011;38158;53.338;6.514;2023-05-24T15:10:16;6.57;;;1.67;;